createdAt,value
2022-09-07T00:00:58.044Z,18.47
2022-09-07T00:03:24.676Z,18.20
2022-09-07T00:05:52.316Z,17.92
2022-09-07T00:08:22.019Z,17.52
2022-09-07T00:10:54.096Z,17.15
2022-09-07T00:13:21.294Z,17.17
2022-09-07T00:15:47.795Z,17.06
2022-09-07T00:18:14.325Z,17.02
2022-09-07T00:20:41.685Z,17.15
2022-09-07T00:23:08.142Z,17.37
2022-09-07T00:25:39.263Z,17.60
2022-09-07T00:28:07.701Z,17.78
2022-09-07T00:30:35.081Z,17.90
2022-09-07T00:33:01.527Z,17.96
2022-09-07T00:35:28.007Z,17.89
2022-09-07T00:37:54.457Z,18.05
2022-09-07T00:40:20.888Z,18.08
2022-09-07T00:42:47.394Z,18.09
2022-09-07T00:45:17.639Z,18.06
2022-09-07T00:48:03.205Z,18.06
2022-09-07T00:50:35.304Z,18.06
2022-09-07T00:53:08.916Z,18.07
2022-09-07T00:55:37.988Z,18.12
2022-09-07T00:58:06.059Z,18.21
2022-09-07T01:00:33.157Z,18.08
2022-09-07T01:04:01.658Z,18.08
2022-09-07T01:10:40.374Z,17.76
2022-09-07T01:13:06.883Z,17.55
2022-09-07T01:15:51.343Z,17.59
2022-09-07T01:18:25.999Z,17.60
2022-09-07T01:21:25.358Z,17.65
2022-09-07T01:24:19.757Z,17.67
2022-09-07T01:31:22.422Z,17.35
2022-09-07T01:34:06.504Z,17.30
2022-09-07T01:36:50.432Z,17.32
2022-09-07T01:39:21.910Z,17.08
2022-09-07T01:41:58.425Z,17.07
2022-09-07T01:44:27.806Z,17.11
2022-09-07T01:47:08.688Z,17.13
2022-09-07T01:53:58.549Z,17.03
2022-09-07T01:56:35.001Z,16.93
2022-09-07T01:59:10.466Z,16.85
2022-09-07T02:01:46.398Z,16.79
2022-09-07T02:04:39.067Z,16.83
2022-09-07T02:07:20.862Z,16.92
2022-09-07T02:09:56.702Z,16.90
2022-09-07T02:12:42.154Z,16.99
2022-09-07T02:15:18.310Z,16.89
2022-09-07T02:17:51.827Z,16.99
2022-09-07T02:20:33.141Z,17.06
2022-09-07T02:23:02.674Z,17.10
2022-09-07T02:25:37.814Z,16.90
2022-09-07T02:28:09.220Z,16.85
2022-09-07T02:30:36.057Z,16.71
2022-09-07T02:33:02.604Z,16.86
2022-09-07T02:35:29.291Z,16.93
2022-09-07T02:37:56.751Z,16.95
2022-09-07T02:40:23.256Z,16.97
2022-09-07T02:42:50.324Z,17.08
2022-09-07T02:45:17.739Z,17.09
2022-09-07T02:48:10.542Z,17.04
2022-09-07T02:50:49.867Z,17.00
2022-09-07T02:53:28.333Z,17.05
2022-09-07T02:56:07.775Z,17.01
2022-09-07T02:58:49.142Z,17.01
2022-09-07T03:01:21.334Z,17.10
2022-09-07T03:04:01.708Z,17.14
2022-09-07T03:06:42.990Z,17.18
2022-09-07T03:09:19.607Z,17.26
2022-09-07T03:11:46.706Z,17.26
2022-09-07T03:14:22.871Z,17.16
2022-09-07T03:16:51.738Z,17.05
2022-09-07T03:19:18.520Z,17.07
2022-09-07T03:21:45.394Z,17.14
2022-09-07T03:24:11.863Z,17.01
2022-09-07T03:26:41.636Z,16.99
2022-09-07T03:29:08.181Z,17.00
2022-09-07T03:31:34.836Z,17.00
2022-09-07T03:34:01.498Z,17.01
2022-09-07T03:36:30.270Z,17.06
2022-09-07T03:38:58.657Z,17.02
2022-09-07T03:41:26.283Z,17.01
2022-09-07T03:43:53.246Z,16.98
2022-09-07T03:46:20.031Z,16.97
2022-09-07T03:48:47.825Z,16.92
2022-09-07T03:51:16.208Z,16.81
2022-09-07T03:53:44.818Z,16.86
2022-09-07T03:56:20.677Z,16.98
2022-09-07T03:58:49.710Z,16.98
2022-09-07T04:01:20.420Z,17.01
2022-09-07T04:03:48.029Z,17.04
2022-09-07T04:06:15.349Z,17.02
2022-09-07T04:08:42.849Z,16.91
2022-09-07T04:11:13.333Z,16.59
2022-09-07T04:13:40.773Z,16.88
2022-09-07T04:16:20.674Z,16.84
2022-09-07T04:18:50.199Z,16.77
2022-09-07T04:21:17.433Z,16.83
2022-09-07T04:23:44.601Z,16.73
2022-09-07T04:26:17.939Z,16.74
2022-09-07T04:28:45.450Z,16.66
2022-09-07T04:31:13.644Z,16.65
2022-09-07T04:33:40.195Z,16.66
2022-09-07T04:36:06.931Z,16.68
2022-09-07T04:38:33.493Z,16.73
2022-09-07T04:41:02.289Z,16.68
2022-09-07T04:43:29.834Z,16.66
2022-09-07T04:45:56.484Z,16.67
2022-09-07T04:48:22.948Z,16.62
2022-09-07T04:50:49.399Z,16.64
2022-09-07T04:53:15.870Z,16.51
2022-09-07T04:55:42.284Z,16.54
2022-09-07T04:58:08.718Z,16.58
2022-09-07T05:00:35.737Z,16.58
2022-09-07T05:03:02.176Z,16.57
2022-09-07T05:05:28.639Z,16.57
2022-09-07T05:07:55.066Z,16.39
2022-09-07T05:10:21.676Z,16.50
2022-09-07T05:12:48.141Z,16.40
2022-09-07T05:15:14.709Z,16.43
2022-09-07T05:17:41.128Z,16.36
2022-09-07T05:20:07.854Z,16.41
2022-09-07T05:22:35.580Z,16.18
2022-09-07T05:25:02.256Z,16.29
2022-09-07T05:27:28.731Z,16.24
2022-09-07T05:32:25.060Z,16.10
2022-09-07T05:34:53.071Z,16.10
2022-09-07T05:37:19.661Z,15.99
2022-09-07T05:39:46.176Z,15.73
2022-09-07T05:42:12.683Z,15.61
2022-09-07T05:47:08.869Z,15.64
2022-09-07T05:49:35.305Z,16.04
2022-09-07T05:52:01.908Z,16.38
2022-09-07T05:54:28.349Z,16.65
2022-09-07T05:56:54.864Z,17.09
2022-09-07T05:59:21.294Z,17.64
2022-09-07T06:01:47.747Z,18.41
2022-09-07T06:04:14.485Z,19.08
2022-09-07T06:06:40.925Z,19.59
2022-09-07T06:09:07.908Z,20.07
2022-09-07T06:11:34.417Z,20.51
2022-09-07T06:14:00.885Z,20.68
2022-09-07T06:16:27.468Z,20.67
2022-09-07T06:18:54.516Z,20.33
2022-09-07T06:21:23.525Z,21.06
2022-09-07T06:23:51.284Z,21.56
2022-09-07T06:26:19.375Z,22.09
2022-09-07T06:28:49.848Z,22.33
2022-09-07T06:31:22.913Z,22.45
2022-09-07T06:33:50.790Z,22.84
2022-09-07T06:36:19.399Z,22.84
2022-09-07T06:38:47.000Z,23.38
2022-09-07T06:44:19.843Z,23.47
2022-09-07T06:49:28.160Z,23.86
2022-09-07T06:51:54.677Z,23.90
2022-09-07T06:57:10.735Z,23.22
2022-09-07T06:59:38.212Z,22.75
2022-09-07T07:02:06.311Z,22.38
2022-09-07T07:04:37.774Z,21.99
2022-09-07T07:07:10.701Z,21.77
2022-09-07T07:09:37.438Z,21.61
2022-09-07T07:12:03.987Z,21.42
2022-09-07T07:14:33.808Z,21.32
2022-09-07T07:17:01.874Z,21.16
2022-09-07T07:19:28.479Z,21.00
2022-09-07T07:22:29.658Z,20.85
2022-09-07T07:24:42.561Z,20.75
2022-09-07T07:27:08.972Z,20.71
2022-09-07T07:29:35.502Z,20.67
2022-09-07T07:32:02.142Z,20.63
2022-09-07T07:34:29.170Z,20.56
2022-09-07T07:36:55.663Z,20.49
2022-09-07T07:42:08.973Z,20.75
2022-09-07T07:44:35.477Z,20.98
2022-09-07T07:47:02.861Z,21.02
2022-09-07T07:49:29.296Z,21.35
2022-09-07T07:54:43.249Z,22.17
2022-09-07T07:57:10.770Z,22.47
2022-09-07T07:59:37.593Z,22.72
2022-09-07T08:02:06.168Z,22.70
2022-09-07T08:04:35.742Z,22.84
2022-09-07T08:07:09.151Z,22.99
2022-09-07T08:09:37.256Z,23.32
2022-09-07T08:12:03.975Z,23.72
2022-09-07T08:14:30.385Z,24.07
2022-09-07T08:16:56.812Z,24.41
2022-09-07T08:19:23.409Z,24.67
2022-09-07T08:21:49.840Z,24.85
2022-09-07T08:24:16.273Z,25.05
2022-09-07T08:26:42.671Z,25.05
2022-09-07T08:29:09.065Z,25.07
2022-09-07T08:31:35.510Z,25.29
2022-09-07T08:34:02.094Z,25.45
2022-09-07T08:36:28.718Z,25.57
2022-09-07T08:38:55.180Z,25.65
2022-09-07T08:41:31.944Z,25.79
2022-09-07T08:44:06.434Z,25.98
2022-09-07T08:46:57.393Z,25.88
2022-09-07T08:49:33.678Z,26.24
2022-09-07T08:52:16.612Z,26.21
2022-09-07T08:54:50.074Z,25.92
2022-09-07T08:57:25.739Z,25.54
2022-09-07T09:00:04.706Z,25.84
2022-09-07T09:02:34.903Z,25.98
2022-09-07T09:05:18.266Z,26.37
2022-09-07T09:08:10.541Z,26.54
2022-09-07T09:10:53.454Z,26.72
2022-09-07T09:13:42.854Z,26.74
2022-09-07T09:17:01.794Z,26.55
2022-09-07T09:20:06.697Z,26.41
2022-09-07T09:22:34.632Z,26.37
2022-09-07T09:25:22.530Z,26.31
2022-09-07T09:27:49.520Z,26.31
2022-09-07T09:30:21.763Z,26.24
2022-09-07T09:33:11.354Z,26.76
2022-09-07T09:35:39.334Z,26.81
2022-09-07T09:38:29.874Z,26.70
2022-09-07T09:40:59.189Z,26.88
2022-09-07T09:43:33.932Z,26.91
2022-09-07T09:46:16.929Z,27.03
2022-09-07T09:48:43.610Z,27.25
2022-09-07T09:54:07.623Z,27.17
2022-09-07T09:56:43.668Z,27.32
2022-09-07T10:05:25.838Z,27.03
2022-09-07T10:07:53.408Z,27.15
2022-09-07T10:10:19.920Z,27.15
2022-09-07T10:12:46.648Z,27.27
2022-09-07T10:15:50.111Z,27.50
2022-09-07T10:18:27.228Z,27.56
2022-09-07T10:21:12.080Z,27.58
2022-09-07T10:23:38.719Z,27.76
2022-09-07T10:26:27.398Z,27.61
2022-09-07T10:29:36.363Z,27.71
2022-09-07T10:32:26.848Z,27.85
2022-09-07T10:35:15.457Z,27.85
2022-09-07T10:38:15.796Z,27.73
2022-09-07T10:41:07.287Z,27.42
2022-09-07T10:43:39.863Z,27.50
2022-09-07T10:46:55.875Z,27.33
2022-09-07T10:49:33.832Z,27.54
2022-09-07T10:52:12.745Z,27.61
2022-09-07T10:55:04.205Z,27.66
2022-09-07T10:58:15.879Z,27.14
2022-09-07T11:01:05.229Z,26.81
2022-09-07T11:03:41.074Z,26.83
2022-09-07T11:06:22.566Z,26.71
2022-09-07T11:09:20.764Z,26.50
2022-09-07T11:12:06.470Z,26.75
2022-09-07T11:14:41.258Z,26.89
2022-09-07T11:17:52.765Z,26.79
2022-09-07T11:20:32.082Z,26.78
2022-09-07T11:23:14.582Z,26.91
2022-09-07T11:25:53.929Z,26.68
2022-09-07T11:28:41.302Z,26.98
2022-09-07T11:31:17.599Z,27.19
2022-09-07T11:36:50.034Z,27.03
2022-09-07T11:39:23.380Z,27.06
2022-09-07T11:42:01.002Z,27.05
2022-09-07T11:44:49.801Z,27.18
2022-09-07T11:47:33.861Z,27.03
2022-09-07T11:50:00.338Z,26.99
2022-09-07T11:52:56.420Z,27.19
2022-09-07T11:55:27.336Z,27.20
2022-09-07T11:58:24.657Z,27.19
2022-09-07T12:01:06.422Z,26.97
2022-09-07T12:04:15.332Z,26.96
2022-09-07T12:07:09.562Z,26.99
2022-09-07T12:09:54.649Z,26.97
2022-09-07T12:12:40.901Z,26.89
2022-09-07T12:15:28.658Z,26.71
2022-09-07T12:18:03.984Z,26.61
2022-09-07T12:20:44.551Z,26.70
2022-09-07T12:23:16.647Z,26.60
2022-09-07T12:25:45.533Z,26.39
2022-09-07T12:28:35.066Z,26.05
2022-09-07T12:31:06.916Z,26.18
2022-09-07T12:33:38.460Z,26.00
2022-09-07T12:36:26.876Z,25.97
2022-09-07T12:39:25.069Z,26.07
2022-09-07T12:45:30.887Z,25.88
2022-09-07T12:47:59.396Z,25.62
2022-09-07T12:50:38.188Z,25.63
2022-09-07T12:53:33.415Z,25.63
2022-09-07T12:56:36.273Z,25.49
2022-09-07T12:59:21.671Z,25.39
2022-09-07T13:01:54.293Z,25.47
2022-09-07T13:04:31.109Z,25.42
2022-09-07T13:07:35.262Z,25.49
2022-09-07T13:10:04.408Z,25.57
2022-09-07T13:12:54.763Z,25.61
2022-09-07T13:15:43.561Z,25.72
2022-09-07T13:18:36.033Z,25.68
2022-09-07T13:21:08.679Z,25.73
2022-09-07T13:23:39.709Z,25.82
2022-09-07T13:26:27.051Z,25.71
2022-09-07T13:28:57.900Z,25.74
2022-09-07T13:31:43.256Z,25.85
2022-09-07T13:34:34.461Z,25.85
2022-09-07T13:37:03.254Z,25.83
2022-09-07T13:39:43.602Z,25.57
2022-09-07T13:42:17.734Z,25.61
2022-09-07T13:44:53.136Z,25.57
2022-09-07T13:47:31.637Z,25.50
2022-09-07T13:50:18.321Z,25.36
2022-09-07T13:53:22.135Z,25.29
2022-09-07T13:56:11.452Z,25.17
2022-09-07T13:58:41.843Z,25.19
2022-09-07T14:01:18.891Z,25.11
2022-09-07T14:03:51.249Z,25.01
2022-09-07T14:06:20.407Z,25.02
2022-09-07T14:08:49.282Z,24.85
2022-09-07T14:11:25.450Z,24.76
2022-09-07T14:14:09.839Z,24.66
2022-09-07T14:16:37.053Z,24.55
2022-09-07T14:19:10.726Z,24.61
2022-09-07T14:21:37.353Z,24.57
2022-09-07T14:24:18.861Z,24.57
2022-09-07T14:26:47.883Z,24.58
2022-09-07T14:29:26.558Z,24.46
2022-09-07T14:31:54.301Z,24.51
2022-09-07T14:34:24.485Z,24.53
2022-09-07T14:36:51.972Z,24.55
2022-09-07T14:39:22.013Z,24.53
2022-09-07T14:41:49.232Z,24.55
2022-09-07T14:44:34.126Z,24.50
2022-09-07T14:47:05.890Z,24.52
2022-09-07T14:49:32.540Z,24.62
2022-09-07T14:52:00.778Z,24.50
2022-09-07T14:54:31.635Z,24.63
2022-09-07T14:57:05.488Z,24.66
2022-09-07T14:59:45.962Z,24.74
2022-09-07T15:02:18.436Z,24.68
2022-09-07T15:05:09.739Z,24.64
2022-09-07T15:07:45.924Z,24.57
2022-09-07T15:10:21.731Z,24.51
2022-09-07T15:12:54.407Z,24.19
2022-09-07T15:15:27.244Z,24.23
2022-09-07T15:17:55.784Z,24.13
2022-09-07T15:20:43.980Z,24.02
2022-09-07T15:23:13.528Z,24.06
2022-09-07T15:25:43.302Z,23.98
2022-09-07T15:29:08.090Z,23.94
2022-09-07T15:33:57.666Z,23.82
2022-09-07T15:36:24.158Z,23.78
2022-09-07T15:39:05.818Z,23.75
2022-09-07T15:41:32.600Z,23.63
2022-09-07T15:43:59.273Z,23.66
2022-09-07T15:46:26.341Z,23.62
2022-09-07T15:48:54.954Z,23.59
2022-09-07T15:54:14.031Z,23.43
2022-09-07T15:56:42.690Z,23.43
2022-09-07T15:59:10.694Z,23.36
2022-09-07T16:01:54.795Z,23.35
2022-09-07T16:04:24.018Z,23.14
2022-09-07T16:06:50.675Z,23.27
2022-09-07T16:09:17.441Z,23.25
2022-09-07T16:11:44.344Z,23.22
2022-09-07T16:14:12.325Z,23.05
2022-09-07T16:19:25.996Z,23.15
2022-09-07T16:21:52.673Z,23.13
2022-09-07T16:24:19.099Z,23.07
2022-09-07T16:26:45.601Z,23.04
2022-09-07T16:29:12.054Z,23.05
2022-09-07T16:31:38.884Z,22.98
2022-09-07T16:34:25.006Z,22.92
2022-09-07T16:36:52.019Z,22.83
2022-09-07T16:39:19.252Z,22.74
2022-09-07T16:41:45.783Z,22.70
2022-09-07T16:44:12.256Z,22.73
2022-09-07T16:46:38.915Z,22.70
2022-09-07T16:49:07.145Z,22.57
2022-09-07T16:51:34.502Z,22.49
2022-09-07T16:54:01.054Z,22.34
2022-09-07T16:56:30.360Z,22.38
2022-09-07T16:59:01.484Z,22.31
2022-09-07T17:01:31.494Z,22.28
2022-09-07T17:03:58.994Z,22.32
2022-09-07T17:06:26.909Z,22.35
2022-09-07T17:08:53.381Z,22.19
2022-09-07T17:11:23.063Z,22.33
2022-09-07T17:13:50.958Z,22.27
2022-09-07T17:16:23.327Z,22.28
2022-09-07T17:21:38.667Z,22.27
2022-09-07T17:24:07.606Z,22.20
2022-09-07T17:26:34.050Z,22.18
2022-09-07T17:29:01.169Z,22.10
2022-09-07T17:34:20.578Z,22.01
2022-09-07T17:36:47.453Z,21.95
2022-09-07T17:39:17.550Z,21.92
2022-09-07T17:41:46.515Z,21.81
2022-09-07T17:44:12.900Z,21.82
2022-09-07T17:46:39.473Z,21.34
2022-09-07T17:49:10.016Z,21.22
2022-09-07T17:51:36.444Z,21.13
2022-09-07T17:54:13.198Z,21.10
2022-09-07T17:56:41.086Z,21.11
2022-09-07T18:01:55.296Z,21.07
2022-09-07T18:04:22.325Z,21.02
2022-09-07T18:06:48.879Z,20.99
2022-09-07T18:09:15.949Z,20.87
2022-09-07T18:11:46.890Z,20.84
2022-09-07T18:14:15.057Z,20.87
2022-09-07T18:16:42.513Z,20.90
2022-09-07T18:19:11.660Z,20.94
2022-09-07T18:21:41.006Z,20.94
2022-09-07T18:24:13.574Z,20.94
2022-09-07T18:26:41.146Z,20.89
2022-09-07T18:29:26.019Z,20.72
2022-09-07T18:31:54.493Z,20.37
2022-09-07T18:34:21.097Z,20.24
2022-09-07T18:36:47.989Z,19.88
2022-09-07T18:39:14.593Z,19.96
2022-09-07T18:41:41.959Z,19.84
2022-09-07T18:45:27.299Z,19.89
2022-09-07T18:46:55.334Z,19.96
2022-09-07T18:49:21.758Z,19.87
2022-09-07T18:54:34.650Z,19.83
2022-09-07T18:57:01.141Z,19.86
2022-09-07T18:59:28.088Z,19.68
2022-09-07T19:02:01.310Z,19.72
2022-09-07T19:07:17.515Z,19.56
2022-09-07T19:09:43.930Z,19.45
2022-09-07T19:12:10.411Z,19.42
2022-09-07T19:14:36.870Z,19.31
2022-09-07T19:17:03.526Z,19.07
2022-09-07T19:19:30.303Z,19.16
2022-09-07T19:21:58.384Z,19.07
2022-09-07T19:24:25.709Z,18.43
2022-09-07T19:26:53.919Z,18.41
2022-09-07T19:29:23.697Z,18.34
2022-09-07T19:32:05.551Z,18.17
2022-09-07T19:34:37.389Z,18.25
2022-09-07T19:37:05.611Z,18.47
2022-09-07T19:39:33.138Z,18.53
2022-09-07T19:41:59.903Z,18.67
2022-09-07T19:44:26.445Z,18.86
2022-09-07T19:46:52.868Z,18.90
2022-09-07T19:49:20.376Z,19.01
2022-09-07T19:51:49.359Z,19.02
2022-09-07T19:54:15.770Z,19.00
2022-09-07T19:56:42.791Z,19.07
2022-09-07T19:59:09.662Z,19.11
2022-09-07T20:01:37.768Z,19.12
2022-09-07T20:04:07.685Z,19.00
2022-09-07T20:06:37.040Z,18.83
2022-09-07T20:09:04.518Z,18.74
2022-09-07T20:11:32.204Z,18.78
2022-09-07T20:13:58.855Z,18.80
2022-09-07T20:16:26.202Z,18.62
2022-09-07T20:18:52.992Z,18.26
2022-09-07T20:21:24.347Z,18.07
2022-09-07T20:23:51.150Z,17.82
2022-09-07T20:26:20.330Z,17.97
2022-09-07T20:29:01.964Z,18.08
2022-09-07T20:31:39.210Z,17.97
2022-09-07T20:34:05.947Z,17.89
2022-09-07T20:36:32.384Z,18.05
2022-09-07T20:38:58.845Z,18.11
2022-09-07T20:41:28.740Z,18.03
2022-09-07T20:43:58.227Z,18.10
2022-09-07T20:46:28.318Z,17.95
2022-09-07T20:48:55.682Z,17.96
2022-09-07T20:51:22.973Z,17.93
2022-09-07T20:53:50.166Z,17.97
2022-09-07T20:56:21.481Z,17.97
2022-09-07T20:58:49.573Z,17.99
2022-09-07T21:01:17.966Z,17.89
2022-09-07T21:03:50.207Z,17.85
2022-09-07T21:06:17.678Z,17.78
2022-09-07T21:08:45.470Z,18.02
2022-09-07T21:11:27.195Z,17.97
2022-09-07T21:13:59.384Z,17.98
2022-09-07T21:16:26.817Z,17.90
2022-09-07T21:18:59.527Z,17.97
2022-09-07T21:21:27.239Z,17.80
2022-09-07T21:23:59.008Z,17.72
2022-09-07T21:26:30.450Z,17.90
2022-09-07T21:28:59.104Z,17.87
2022-09-07T21:31:26.490Z,17.82
2022-09-07T21:33:54.824Z,17.60
2022-09-07T21:36:21.759Z,17.50
2022-09-07T21:38:48.461Z,17.56
2022-09-07T21:41:17.232Z,17.69
2022-09-07T21:43:43.950Z,17.71
2022-09-07T21:46:16.456Z,17.68
2022-09-07T21:48:43.515Z,17.59
2022-09-07T21:51:09.991Z,17.55
2022-09-07T21:53:36.411Z,17.50
2022-09-07T21:56:05.140Z,17.63
2022-09-07T21:58:33.212Z,17.50
2022-09-07T22:01:03.695Z,17.57
2022-09-07T22:03:30.337Z,17.60
2022-09-07T22:06:01.550Z,17.59
2022-09-07T22:08:28.008Z,17.67
2022-09-07T22:10:54.415Z,17.75
2022-09-07T22:13:20.990Z,17.79
2022-09-07T22:15:47.977Z,17.75
2022-09-07T22:18:14.430Z,17.69
2022-09-07T22:20:40.994Z,17.64
2022-09-07T22:23:07.393Z,17.59
2022-09-07T22:25:34.747Z,17.59
2022-09-07T22:28:01.461Z,17.42
2022-09-07T22:30:28.062Z,17.20
2022-09-07T22:32:54.651Z,17.26
2022-09-07T22:35:23.286Z,17.29
2022-09-07T22:37:49.749Z,17.46
2022-09-07T22:40:16.341Z,17.43
2022-09-07T22:42:42.789Z,17.41
2022-09-07T22:45:10.006Z,17.40
2022-09-07T22:47:36.622Z,17.35
2022-09-07T22:50:03.230Z,17.34
2022-09-07T22:52:29.662Z,17.46
2022-09-07T22:54:56.101Z,17.49
2022-09-07T22:57:23.303Z,17.34
2022-09-07T22:59:49.801Z,17.42
2022-09-07T23:02:16.174Z,17.53
2022-09-07T23:04:42.671Z,17.40
2022-09-07T23:07:09.359Z,17.23
2022-09-07T23:09:36.018Z,17.40
2022-09-07T23:12:02.695Z,17.29
2022-09-07T23:14:29.271Z,17.18
2022-09-07T23:16:55.629Z,16.64
2022-09-07T23:19:22.213Z,16.96
2022-09-07T23:21:48.871Z,16.74
2022-09-07T23:24:17.735Z,16.57
2022-09-07T23:26:44.544Z,16.62
2022-09-07T23:29:12.654Z,16.67
2022-09-07T23:31:40.134Z,16.55
2022-09-07T23:34:07.805Z,16.80
2022-09-07T23:36:34.253Z,16.80
2022-09-07T23:39:01.131Z,16.68
2022-09-07T23:41:27.827Z,16.62
2022-09-07T23:43:55.015Z,16.55
2022-09-07T23:46:22.169Z,16.51
2022-09-07T23:48:49.101Z,16.44
2022-09-07T23:51:19.911Z,16.41
2022-09-07T23:53:49.477Z,16.40
2022-09-07T23:56:15.939Z,16.21
2022-09-07T23:58:42.329Z,16.16
